sensor_id;sensor_type;location;lat;lon;timestamp;P1;durP1;ratioP1;P2;durP2;ratioP2
52586;SDS011;38480;52.724;6.436;2022-07-05T00:02:06;16.10;;;10.37;;
52586;SDS011;38480;52.724;6.436;2022-07-05T00:04:32;17.67;;;11.57;;
52586;SDS011;38480;52.724;6.436;2022-07-05T00:06:58;15.33;;;11.47;;
52586;SDS011;38480;52.724;6.436;2022-07-05T00:09:42;14.93;;;10.53;;
52586;SDS011;38480;52.724;6.436;2022-07-05T00:12:09;15.37;;;11.47;;
52586;SDS011;38480;52.724;6.436;2022-07-05T00:14:35;15.40;;;11.63;;
52586;SDS011;38480;52.724;6.436;2022-07-05T00:17:04;16.53;;;12.07;;
52586;SDS011;38480;52.724;6.436;2022-07-05T00:19:30;21.13;;;12.27;;
52586;SDS011;38480;52.724;6.436;2022-07-05T00:21:56;15.63;;;11.80;;
52586;SDS011;38480;52.724;6.436;2022-07-05T00:24:23;14.60;;;11.67;;
52586;SDS011;38480;52.724;6.436;2022-07-05T00:26:49;19.57;;;12.83;;
52586;SDS011;38480;52.724;6.436;2022-07-05T00:29:15;18.70;;;13.80;;
52586;SDS011;38480;52.724;6.436;2022-07-05T00:31:41;17.70;;;11.73;;
52586;SDS011;38480;52.724;6.436;2022-07-05T00:34:07;15.40;;;11.40;;
52586;SDS011;38480;52.724;6.436;2022-07-05T00:36:33;16.47;;;10.93;;
52586;SDS011;38480;52.724;6.436;2022-07-05T00:38:59;21.67;;;11.60;;
52586;SDS011;38480;52.724;6.436;2022-07-05T00:41:25;17.17;;;11.43;;
52586;SDS011;38480;52.724;6.436;2022-07-05T00:43:55;15.07;;;11.17;;
52586;SDS011;38480;52.724;6.436;2022-07-05T00:46:21;19.27;;;12.67;;
52586;SDS011;38480;52.724;6.436;2022-07-05T00:48:48;25.13;;;15.87;;
52586;SDS011;38480;52.724;6.436;2022-07-05T00:51:14;24.57;;;16.33;;
52586;SDS011;38480;52.724;6.436;2022-07-05T00:53:40;23.83;;;14.87;;
52586;SDS011;38480;52.724;6.436;2022-07-05T00:56:08;23.33;;;13.97;;
52586;SDS011;38480;52.724;6.436;2022-07-05T00:58:34;21.43;;;13.97;;
52586;SDS011;38480;52.724;6.436;2022-07-05T01:01:02;22.83;;;13.13;;
52586;SDS011;38480;52.724;6.436;2022-07-05T01:03:28;19.00;;;13.37;;
52586;SDS011;38480;52.724;6.436;2022-07-05T01:05:55;19.70;;;13.50;;
52586;SDS011;38480;52.724;6.436;2022-07-05T01:08:21;18.87;;;13.50;;
52586;SDS011;38480;52.724;6.436;2022-07-05T01:10:49;21.83;;;13.80;;
52586;SDS011;38480;52.724;6.436;2022-07-05T01:13:15;16.77;;;11.87;;
52586;SDS011;38480;52.724;6.436;2022-07-05T01:15:41;17.30;;;12.63;;
52586;SDS011;38480;52.724;6.436;2022-07-05T01:18:07;21.10;;;13.43;;
52586;SDS011;38480;52.724;6.436;2022-07-05T01:20:34;18.07;;;13.87;;
52586;SDS011;38480;52.724;6.436;2022-07-05T01:23:00;22.57;;;14.23;;
52586;SDS011;38480;52.724;6.436;2022-07-05T01:25:27;22.37;;;14.83;;
52586;SDS011;38480;52.724;6.436;2022-07-05T01:27:54;24.43;;;16.27;;
52586;SDS011;38480;52.724;6.436;2022-07-05T01:30:20;20.83;;;15.77;;
52586;SDS011;38480;52.724;6.436;2022-07-05T01:32:47;25.57;;;15.73;;
52586;SDS011;38480;52.724;6.436;2022-07-05T01:35:13;23.80;;;16.83;;
52586;SDS011;38480;52.724;6.436;2022-07-05T01:37:39;31.70;;;17.03;;
52586;SDS011;38480;52.724;6.436;2022-07-05T01:40:06;18.83;;;14.20;;
52586;SDS011;38480;52.724;6.436;2022-07-05T01:42:32;23.20;;;15.10;;
52586;SDS011;38480;52.724;6.436;2022-07-05T01:44:58;29.70;;;16.23;;
52586;SDS011;38480;52.724;6.436;2022-07-05T01:47:24;24.77;;;16.93;;
52586;SDS011;38480;52.724;6.436;2022-07-05T01:49:51;26.27;;;15.37;;
52586;SDS011;38480;52.724;6.436;2022-07-05T01:52:19;29.67;;;16.67;;
52586;SDS011;38480;52.724;6.436;2022-07-05T01:54:46;22.90;;;15.30;;
52586;SDS011;38480;52.724;6.436;2022-07-05T01:57:12;30.10;;;15.50;;
52586;SDS011;38480;52.724;6.436;2022-07-05T01:59:39;26.13;;;16.33;;
52586;SDS011;38480;52.724;6.436;2022-07-05T02:02:06;22.17;;;14.73;;
52586;SDS011;38480;52.724;6.436;2022-07-05T02:04:35;20.60;;;14.90;;
52586;SDS011;38480;52.724;6.436;2022-07-05T02:07:05;25.63;;;15.80;;
52586;SDS011;38480;52.724;6.436;2022-07-05T02:09:32;31.07;;;18.27;;
52586;SDS011;38480;52.724;6.436;2022-07-05T02:11:58;31.57;;;17.73;;
52586;SDS011;38480;52.724;6.436;2022-07-05T02:14:24;27.93;;;17.00;;
52586;SDS011;38480;52.724;6.436;2022-07-05T02:16:50;30.77;;;17.83;;
52586;SDS011;38480;52.724;6.436;2022-07-05T02:19:16;31.03;;;19.00;;
52586;SDS011;38480;52.724;6.436;2022-07-05T02:21:42;26.03;;;17.83;;
52586;SDS011;38480;52.724;6.436;2022-07-05T02:24:08;29.37;;;19.13;;
52586;SDS011;38480;52.724;6.436;2022-07-05T02:26:34;29.57;;;18.40;;
52586;SDS011;38480;52.724;6.436;2022-07-05T02:29:01;37.63;;;20.30;;
52586;SDS011;38480;52.724;6.436;2022-07-05T02:31:27;26.20;;;18.70;;
52586;SDS011;38480;52.724;6.436;2022-07-05T02:33:53;23.73;;;16.60;;
52586;SDS011;38480;52.724;6.436;2022-07-05T02:36:19;26.40;;;18.20;;
52586;SDS011;38480;52.724;6.436;2022-07-05T02:38:46;28.53;;;18.00;;
52586;SDS011;38480;52.724;6.436;2022-07-05T02:41:12;28.90;;;17.73;;
52586;SDS011;38480;52.724;6.436;2022-07-05T02:43:38;31.60;;;19.93;;
52586;SDS011;38480;52.724;6.436;2022-07-05T02:46:05;25.57;;;18.10;;
52586;SDS011;38480;52.724;6.436;2022-07-05T02:48:32;25.87;;;18.30;;
52586;SDS011;38480;52.724;6.436;2022-07-05T02:50:59;29.13;;;20.00;;
52586;SDS011;38480;52.724;6.436;2022-07-05T02:53:25;31.53;;;21.57;;
52586;SDS011;38480;52.724;6.436;2022-07-05T02:55:51;33.57;;;21.87;;
52586;SDS011;38480;52.724;6.436;2022-07-05T02:58:17;35.60;;;21.33;;
52586;SDS011;38480;52.724;6.436;2022-07-05T03:00:43;38.63;;;22.57;;
52586;SDS011;38480;52.724;6.436;2022-07-05T03:03:09;36.90;;;22.07;;
52586;SDS011;38480;52.724;6.436;2022-07-05T03:05:35;34.13;;;22.40;;
52586;SDS011;38480;52.724;6.436;2022-07-05T03:08:01;37.63;;;22.97;;
52586;SDS011;38480;52.724;6.436;2022-07-05T03:10:27;37.93;;;23.43;;
52586;SDS011;38480;52.724;6.436;2022-07-05T03:12:53;33.97;;;21.17;;
52586;SDS011;38480;52.724;6.436;2022-07-05T03:15:19;33.03;;;21.33;;
52586;SDS011;38480;52.724;6.436;2022-07-05T03:17:45;31.43;;;21.83;;
52586;SDS011;38480;52.724;6.436;2022-07-05T03:20:11;35.53;;;23.13;;
52586;SDS011;38480;52.724;6.436;2022-07-05T03:22:37;32.50;;;22.47;;
52586;SDS011;38480;52.724;6.436;2022-07-05T03:25:04;41.83;;;25.37;;
52586;SDS011;38480;52.724;6.436;2022-07-05T03:27:30;33.20;;;22.63;;
52586;SDS011;38480;52.724;6.436;2022-07-05T03:29:56;44.57;;;26.00;;
52586;SDS011;38480;52.724;6.436;2022-07-05T03:32:22;48.00;;;26.87;;
52586;SDS011;38480;52.724;6.436;2022-07-05T03:34:48;34.57;;;24.10;;
52586;SDS011;38480;52.724;6.436;2022-07-05T03:37:14;33.67;;;24.33;;
52586;SDS011;38480;52.724;6.436;2022-07-05T03:39:41;34.43;;;23.07;;
52586;SDS011;38480;52.724;6.436;2022-07-05T03:42:07;39.17;;;24.97;;
52586;SDS011;38480;52.724;6.436;2022-07-05T03:44:33;42.90;;;25.73;;
52586;SDS011;38480;52.724;6.436;2022-07-05T03:46:59;35.80;;;24.47;;
52586;SDS011;38480;52.724;6.436;2022-07-05T03:49:25;33.30;;;24.23;;
52586;SDS011;38480;52.724;6.436;2022-07-05T03:51:51;48.00;;;28.80;;
52586;SDS011;38480;52.724;6.436;2022-07-05T03:54:17;35.03;;;23.90;;
52586;SDS011;38480;52.724;6.436;2022-07-05T03:56:43;42.90;;;25.53;;
52586;SDS011;38480;52.724;6.436;2022-07-05T03:59:10;45.30;;;28.17;;
52586;SDS011;38480;52.724;6.436;2022-07-05T04:01:36;51.53;;;28.27;;
52586;SDS011;38480;52.724;6.436;2022-07-05T04:04:02;36.90;;;24.00;;
52586;SDS011;38480;52.724;6.436;2022-07-05T04:06:28;41.40;;;27.50;;
52586;SDS011;38480;52.724;6.436;2022-07-05T04:08:54;32.00;;;23.50;;
52586;SDS011;38480;52.724;6.436;2022-07-05T04:11:20;30.33;;;22.97;;
52586;SDS011;38480;52.724;6.436;2022-07-05T04:13:46;35.80;;;23.57;;
52586;SDS011;38480;52.724;6.436;2022-07-05T04:16:12;28.67;;;22.23;;
52586;SDS011;38480;52.724;6.436;2022-07-05T04:18:38;36.13;;;24.60;;
52586;SDS011;38480;52.724;6.436;2022-07-05T04:21:04;34.87;;;24.77;;
52586;SDS011;38480;52.724;6.436;2022-07-05T04:23:30;44.40;;;27.07;;
52586;SDS011;38480;52.724;6.436;2022-07-05T04:25:56;28.57;;;21.07;;
52586;SDS011;38480;52.724;6.436;2022-07-05T04:28:23;24.60;;;19.43;;
52586;SDS011;38480;52.724;6.436;2022-07-05T04:30:49;30.23;;;21.10;;
52586;SDS011;38480;52.724;6.436;2022-07-05T04:33:15;33.40;;;20.53;;
52586;SDS011;38480;52.724;6.436;2022-07-05T04:35:41;24.27;;;19.00;;
52586;SDS011;38480;52.724;6.436;2022-07-05T04:38:07;26.00;;;18.73;;
52586;SDS011;38480;52.724;6.436;2022-07-05T04:40:33;26.07;;;18.23;;
52586;SDS011;38480;52.724;6.436;2022-07-05T04:42:59;21.93;;;17.03;;
52586;SDS011;38480;52.724;6.436;2022-07-05T04:45:25;31.03;;;20.77;;
52586;SDS011;38480;52.724;6.436;2022-07-05T04:47:51;21.83;;;16.47;;
52586;SDS011;38480;52.724;6.436;2022-07-05T04:50:17;22.37;;;16.73;;
52586;SDS011;38480;52.724;6.436;2022-07-05T04:52:43;21.33;;;16.60;;
52586;SDS011;38480;52.724;6.436;2022-07-05T04:55:09;20.60;;;15.07;;
52586;SDS011;38480;52.724;6.436;2022-07-05T04:57:38;27.67;;;18.50;;
52586;SDS011;38480;52.724;6.436;2022-07-05T05:00:05;17.47;;;14.57;;
52586;SDS011;38480;52.724;6.436;2022-07-05T05:02:31;23.27;;;17.43;;
52586;SDS011;38480;52.724;6.436;2022-07-05T05:04:57;21.03;;;15.43;;
52586;SDS011;38480;52.724;6.436;2022-07-05T05:07:23;18.93;;;14.17;;
52586;SDS011;38480;52.724;6.436;2022-07-05T05:09:49;20.50;;;15.40;;
52586;SDS011;38480;52.724;6.436;2022-07-05T05:12:15;19.37;;;15.27;;
52586;SDS011;38480;52.724;6.436;2022-07-05T05:14:41;15.87;;;13.93;;
52586;SDS011;38480;52.724;6.436;2022-07-05T05:17:07;20.33;;;14.77;;
52586;SDS011;38480;52.724;6.436;2022-07-05T05:19:33;21.90;;;13.90;;
52586;SDS011;38480;52.724;6.436;2022-07-05T05:21:59;18.80;;;14.23;;
52586;SDS011;38480;52.724;6.436;2022-07-05T05:24:25;20.50;;;14.27;;
52586;SDS011;38480;52.724;6.436;2022-07-05T05:26:51;15.53;;;11.77;;
52586;SDS011;38480;52.724;6.436;2022-07-05T05:29:17;18.17;;;11.73;;
52586;SDS011;38480;52.724;6.436;2022-07-05T05:31:45;15.67;;;11.53;;
52586;SDS011;38480;52.724;6.436;2022-07-05T05:34:12;14.40;;;11.50;;
52586;SDS011;38480;52.724;6.436;2022-07-05T05:36:38;15.27;;;10.87;;
52586;SDS011;38480;52.724;6.436;2022-07-05T05:39:04;13.40;;;10.27;;
52586;SDS011;38480;52.724;6.436;2022-07-05T05:41:30;10.50;;;9.40;;
52586;SDS011;38480;52.724;6.436;2022-07-05T05:43:56;10.63;;;9.53;;
52586;SDS011;38480;52.724;6.436;2022-07-05T05:46:22;11.13;;;9.60;;
52586;SDS011;38480;52.724;6.436;2022-07-05T05:48:48;12.50;;;9.33;;
52586;SDS011;38480;52.724;6.436;2022-07-05T05:51:14;15.33;;;8.93;;
52586;SDS011;38480;52.724;6.436;2022-07-05T05:53:40;13.90;;;8.90;;
52586;SDS011;38480;52.724;6.436;2022-07-05T05:56:06;13.53;;;9.47;;
52586;SDS011;38480;52.724;6.436;2022-07-05T05:58:32;12.63;;;8.90;;
52586;SDS011;38480;52.724;6.436;2022-07-05T06:00:58;13.23;;;8.17;;
52586;SDS011;38480;52.724;6.436;2022-07-05T06:03:25;13.37;;;9.33;;
52586;SDS011;38480;52.724;6.436;2022-07-05T06:05:52;13.27;;;7.70;;
52586;SDS011;38480;52.724;6.436;2022-07-05T06:08:18;11.67;;;7.90;;
52586;SDS011;38480;52.724;6.436;2022-07-05T06:10:44;12.37;;;8.10;;
52586;SDS011;38480;52.724;6.436;2022-07-05T06:13:11;9.67;;;7.10;;
52586;SDS011;38480;52.724;6.436;2022-07-05T06:15:37;11.53;;;7.93;;
52586;SDS011;38480;52.724;6.436;2022-07-05T06:18:04;13.40;;;7.77;;
52586;SDS011;38480;52.724;6.436;2022-07-05T06:20:31;8.13;;;5.77;;
52586;SDS011;38480;52.724;6.436;2022-07-05T06:22:58;8.13;;;6.20;;
52586;SDS011;38480;52.724;6.436;2022-07-05T06:25:24;9.27;;;6.07;;
52586;SDS011;38480;52.724;6.436;2022-07-05T06:27:54;8.93;;;6.60;;
52586;SDS011;38480;52.724;6.436;2022-07-05T06:30:21;8.30;;;5.53;;
52586;SDS011;38480;52.724;6.436;2022-07-05T06:32:48;8.93;;;5.17;;
52586;SDS011;38480;52.724;6.436;2022-07-05T06:35:14;8.00;;;4.50;;
52586;SDS011;38480;52.724;6.436;2022-07-05T06:40:06;7.30;;;3.57;;
52586;SDS011;38480;52.724;6.436;2022-07-05T06:42:33;5.70;;;3.17;;
52586;SDS011;38480;52.724;6.436;2022-07-05T06:44:59;6.57;;;3.30;;
52586;SDS011;38480;52.724;6.436;2022-07-05T06:47:25;7.43;;;3.10;;
52586;SDS011;38480;52.724;6.436;2022-07-05T06:49:51;7.40;;;3.50;;
52586;SDS011;38480;52.724;6.436;2022-07-05T06:52:17;9.80;;;3.03;;
52586;SDS011;38480;52.724;6.436;2022-07-05T06:54:43;8.00;;;2.83;;
52586;SDS011;38480;52.724;6.436;2022-07-05T06:57:09;8.30;;;3.17;;
52586;SDS011;38480;52.724;6.436;2022-07-05T06:59:35;9.93;;;2.70;;
52586;SDS011;38480;52.724;6.436;2022-07-05T07:02:02;6.30;;;2.13;;
52586;SDS011;38480;52.724;6.436;2022-07-05T07:04:28;5.00;;;2.57;;
52586;SDS011;38480;52.724;6.436;2022-07-05T07:06:54;7.30;;;1.93;;
52586;SDS011;38480;52.724;6.436;2022-07-05T07:09:20;5.40;;;1.90;;
52586;SDS011;38480;52.724;6.436;2022-07-05T07:11:48;7.00;;;1.50;;
52586;SDS011;38480;52.724;6.436;2022-07-05T07:14:17;5.17;;;1.50;;
52586;SDS011;38480;52.724;6.436;2022-07-05T07:16:43;7.57;;;2.00;;
52586;SDS011;38480;52.724;6.436;2022-07-05T07:19:09;8.00;;;1.70;;
52586;SDS011;38480;52.724;6.436;2022-07-05T07:21:36;6.10;;;1.73;;
52586;SDS011;38480;52.724;6.436;2022-07-05T07:24:02;4.93;;;1.40;;
52586;SDS011;38480;52.724;6.436;2022-07-05T07:26:28;3.87;;;1.87;;
52586;SDS011;38480;52.724;6.436;2022-07-05T07:28:54;4.93;;;1.00;;
52586;SDS011;38480;52.724;6.436;2022-07-05T07:31:20;5.73;;;1.87;;
52586;SDS011;38480;52.724;6.436;2022-07-05T07:33:46;2.80;;;1.20;;
52586;SDS011;38480;52.724;6.436;2022-07-05T07:36:12;6.63;;;1.43;;
52586;SDS011;38480;52.724;6.436;2022-07-05T07:38:38;5.37;;;1.00;;
52586;SDS011;38480;52.724;6.436;2022-07-05T07:41:04;6.17;;;1.30;;
52586;SDS011;38480;52.724;6.436;2022-07-05T07:43:30;4.93;;;1.03;;
52586;SDS011;38480;52.724;6.436;2022-07-05T07:45:56;4.07;;;1.00;;
52586;SDS011;38480;52.724;6.436;2022-07-05T07:48:23;6.10;;;1.07;;
52586;SDS011;38480;52.724;6.436;2022-07-05T07:50:50;3.33;;;0.93;;
52586;SDS011;38480;52.724;6.436;2022-07-05T07:53:15;4.40;;;1.07;;
52586;SDS011;38480;52.724;6.436;2022-07-05T07:55:41;4.50;;;0.83;;
52586;SDS011;38480;52.724;6.436;2022-07-05T07:58:07;3.90;;;1.07;;
52586;SDS011;38480;52.724;6.436;2022-07-05T08:00:34;5.03;;;0.90;;
52586;SDS011;38480;52.724;6.436;2022-07-05T08:03:00;3.73;;;0.70;;
52586;SDS011;38480;52.724;6.436;2022-07-05T08:05:26;4.40;;;1.00;;
52586;SDS011;38480;52.724;6.436;2022-07-05T08:07:52;4.00;;;1.00;;
52586;SDS011;38480;52.724;6.436;2022-07-05T08:10:18;6.73;;;0.90;;
52586;SDS011;38480;52.724;6.436;2022-07-05T08:12:44;4.43;;;1.10;;
52586;SDS011;38480;52.724;6.436;2022-07-05T08:15:10;3.20;;;0.80;;
52586;SDS011;38480;52.724;6.436;2022-07-05T08:17:36;3.60;;;1.10;;
52586;SDS011;38480;52.724;6.436;2022-07-05T08:20:22;2.83;;;0.80;;
52586;SDS011;38480;52.724;6.436;2022-07-05T08:23:08;3.90;;;1.00;;
52586;SDS011;38480;52.724;6.436;2022-07-05T08:25:34;2.60;;;0.80;;
52586;SDS011;38480;52.724;6.436;2022-07-05T08:28:00;3.37;;;1.00;;
52586;SDS011;38480;52.724;6.436;2022-07-05T08:30:26;5.67;;;1.50;;
52586;SDS011;38480;52.724;6.436;2022-07-05T08:32:52;2.63;;;0.93;;
52586;SDS011;38480;52.724;6.436;2022-07-05T08:35:18;5.93;;;0.80;;
52586;SDS011;38480;52.724;6.436;2022-07-05T08:37:44;4.63;;;1.33;;
52586;SDS011;38480;52.724;6.436;2022-07-05T08:40:10;3.43;;;1.00;;
52586;SDS011;38480;52.724;6.436;2022-07-05T08:42:38;3.33;;;0.90;;
52586;SDS011;38480;52.724;6.436;2022-07-05T08:45:04;3.23;;;0.80;;
52586;SDS011;38480;52.724;6.436;2022-07-05T08:47:31;2.37;;;0.70;;
52586;SDS011;38480;52.724;6.436;2022-07-05T08:49:58;3.50;;;1.10;;
52586;SDS011;38480;52.724;6.436;2022-07-05T08:52:24;3.67;;;1.10;;
52586;SDS011;38480;52.724;6.436;2022-07-05T08:54:51;2.60;;;1.00;;
52586;SDS011;38480;52.724;6.436;2022-07-05T08:57:18;2.47;;;1.00;;
52586;SDS011;38480;52.724;6.436;2022-07-05T08:59:44;3.17;;;0.90;;
52586;SDS011;38480;52.724;6.436;2022-07-05T09:02:11;3.30;;;0.90;;
52586;SDS011;38480;52.724;6.436;2022-07-05T09:04:40;3.00;;;0.80;;
52586;SDS011;38480;52.724;6.436;2022-07-05T09:07:07;4.85;;;1.10;;
52586;SDS011;38480;52.724;6.436;2022-07-05T09:09:33;8.80;;;1.10;;
52586;SDS011;38480;52.724;6.436;2022-07-05T09:12:01;5.68;;;1.00;;
52586;SDS011;38480;52.724;6.436;2022-07-05T09:14:27;6.35;;;1.30;;
52586;SDS011;38480;52.724;6.436;2022-07-05T09:16:53;4.93;;;1.20;;
52586;SDS011;38480;52.724;6.436;2022-07-05T09:19:20;5.82;;;0.90;;
52586;SDS011;38480;52.724;6.436;2022-07-05T09:21:46;3.25;;;0.77;;
52586;SDS011;38480;52.724;6.436;2022-07-05T09:24:12;4.63;;;1.00;;
52586;SDS011;38480;52.724;6.436;2022-07-05T09:26:43;5.15;;;1.02;;
52586;SDS011;38480;52.724;6.436;2022-07-05T09:29:19;4.95;;;1.30;;
52586;SDS011;38480;52.724;6.436;2022-07-05T09:31:46;3.92;;;0.88;;
52586;SDS011;38480;52.724;6.436;2022-07-05T09:34:17;4.03;;;1.02;;
52586;SDS011;38480;52.724;6.436;2022-07-05T09:36:47;4.88;;;0.82;;
52586;SDS011;38480;52.724;6.436;2022-07-05T09:39:13;1.98;;;0.70;;
52586;SDS011;38480;52.724;6.436;2022-07-05T09:41:39;4.15;;;1.20;;
52586;SDS011;38480;52.724;6.436;2022-07-05T09:44:05;5.72;;;1.13;;
52586;SDS011;38480;52.724;6.436;2022-07-05T09:46:31;4.40;;;0.88;;
52586;SDS011;38480;52.724;6.436;2022-07-05T09:48:57;5.55;;;1.00;;
52586;SDS011;38480;52.724;6.436;2022-07-05T09:51:23;4.95;;;1.02;;
52586;SDS011;38480;52.724;6.436;2022-07-05T09:53:56;5.82;;;1.55;;
52586;SDS011;38480;52.724;6.436;2022-07-05T09:56:23;3.92;;;1.17;;
52586;SDS011;38480;52.724;6.436;2022-07-05T09:58:54;1.92;;;0.93;;
52586;SDS011;38480;52.724;6.436;2022-07-05T10:01:27;3.50;;;1.00;;
52586;SDS011;38480;52.724;6.436;2022-07-05T10:06:19;5.40;;;0.90;;
52586;SDS011;38480;52.724;6.436;2022-07-05T10:08:46;3.65;;;1.00;;
52586;SDS011;38480;52.724;6.436;2022-07-05T10:11:15;4.28;;;0.93;;
52586;SDS011;38480;52.724;6.436;2022-07-05T10:13:43;3.08;;;1.40;;
52586;SDS011;38480;52.724;6.436;2022-07-05T10:16:10;3.35;;;1.08;;
52586;SDS011;38480;52.724;6.436;2022-07-05T10:18:36;2.63;;;0.80;;
52586;SDS011;38480;52.724;6.436;2022-07-05T10:21:03;7.33;;;1.47;;
52586;SDS011;38480;52.724;6.436;2022-07-05T10:23:31;2.83;;;1.20;;
52586;SDS011;38480;52.724;6.436;2022-07-05T10:25:57;3.87;;;1.00;;
52586;SDS011;38480;52.724;6.436;2022-07-05T10:28:23;2.30;;;0.90;;
52586;SDS011;38480;52.724;6.436;2022-07-05T10:30:50;5.50;;;1.05;;
52586;SDS011;38480;52.724;6.436;2022-07-05T10:33:19;3.17;;;0.90;;
52586;SDS011;38480;52.724;6.436;2022-07-05T10:35:50;2.90;;;1.00;;
52586;SDS011;38480;52.724;6.436;2022-07-05T10:38:16;2.67;;;0.88;;
52586;SDS011;38480;52.724;6.436;2022-07-05T10:40:43;3.60;;;1.10;;
52586;SDS011;38480;52.724;6.436;2022-07-05T10:43:12;4.90;;;1.00;;
52586;SDS011;38480;52.724;6.436;2022-07-05T10:45:39;3.47;;;1.10;;
52586;SDS011;38480;52.724;6.436;2022-07-05T10:53:10;5.63;;;1.40;;
52586;SDS011;38480;52.724;6.436;2022-07-05T10:55:53;5.75;;;1.38;;
52586;SDS011;38480;52.724;6.436;2022-07-05T10:58:20;3.15;;;0.77;;
52586;SDS011;38480;52.724;6.436;2022-07-05T11:00:47;4.82;;;1.10;;
52586;SDS011;38480;52.724;6.436;2022-07-05T11:06:02;6.97;;;1.02;;
52586;SDS011;38480;52.724;6.436;2022-07-05T11:08:29;3.95;;;1.00;;
52586;SDS011;38480;52.724;6.436;2022-07-05T11:13:40;4.13;;;1.30;;
52586;SDS011;38480;52.724;6.436;2022-07-05T11:16:21;2.92;;;0.82;;
52586;SDS011;38480;52.724;6.436;2022-07-05T11:18:48;4.03;;;1.00;;
52586;SDS011;38480;52.724;6.436;2022-07-05T11:21:19;7.40;;;1.40;;
52586;SDS011;38480;52.724;6.436;2022-07-05T11:23:45;4.88;;;1.00;;
52586;SDS011;38480;52.724;6.436;2022-07-05T11:26:12;5.30;;;1.00;;
52586;SDS011;38480;52.724;6.436;2022-07-05T11:28:45;5.40;;;1.10;;
52586;SDS011;38480;52.724;6.436;2022-07-05T11:31:12;3.55;;;1.17;;
52586;SDS011;38480;52.724;6.436;2022-07-05T11:36:06;4.23;;;0.83;;
52586;SDS011;38480;52.724;6.436;2022-07-05T11:38:33;7.30;;;1.10;;
52586;SDS011;38480;52.724;6.436;2022-07-05T11:41:10;4.55;;;0.88;;
52586;SDS011;38480;52.724;6.436;2022-07-05T11:43:36;3.35;;;0.95;;
52586;SDS011;38480;52.724;6.436;2022-07-05T11:46:03;3.60;;;1.33;;
52586;SDS011;38480;52.724;6.436;2022-07-05T11:48:29;4.13;;;0.98;;
52586;SDS011;38480;52.724;6.436;2022-07-05T11:50:56;4.82;;;1.05;;
52586;SDS011;38480;52.724;6.436;2022-07-05T11:53:30;3.15;;;1.10;;
52586;SDS011;38480;52.724;6.436;2022-07-05T11:55:57;3.92;;;1.13;;
52586;SDS011;38480;52.724;6.436;2022-07-05T11:58:31;3.25;;;1.05;;
52586;SDS011;38480;52.724;6.436;2022-07-05T12:00:57;3.55;;;1.00;;
52586;SDS011;38480;52.724;6.436;2022-07-05T12:03:23;3.20;;;1.00;;
52586;SDS011;38480;52.724;6.436;2022-07-05T12:05:50;3.10;;;0.90;;
52586;SDS011;38480;52.724;6.436;2022-07-05T12:08:23;2.38;;;1.15;;
52586;SDS011;38480;52.724;6.436;2022-07-05T12:10:49;4.53;;;0.85;;
52586;SDS011;38480;52.724;6.436;2022-07-05T12:13:47;2.20;;;0.75;;
52586;SDS011;38480;52.724;6.436;2022-07-05T12:16:13;3.10;;;1.08;;
52586;SDS011;38480;52.724;6.436;2022-07-05T12:18:46;2.65;;;0.80;;
52586;SDS011;38480;52.724;6.436;2022-07-05T12:21:12;3.42;;;0.95;;
52586;SDS011;38480;52.724;6.436;2022-07-05T12:23:40;4.25;;;0.90;;
52586;SDS011;38480;52.724;6.436;2022-07-05T12:26:06;2.83;;;0.93;;
52586;SDS011;38480;52.724;6.436;2022-07-05T12:28:32;3.10;;;0.80;;
52586;SDS011;38480;52.724;6.436;2022-07-05T12:31:13;4.15;;;1.15;;
52586;SDS011;38480;52.724;6.436;2022-07-05T12:33:39;2.80;;;0.73;;
52586;SDS011;38480;52.724;6.436;2022-07-05T12:36:05;2.53;;;0.60;;
52586;SDS011;38480;52.724;6.436;2022-07-05T12:38:36;3.75;;;0.80;;
52586;SDS011;38480;52.724;6.436;2022-07-05T12:41:02;4.15;;;0.82;;
52586;SDS011;38480;52.724;6.436;2022-07-05T12:43:28;4.55;;;1.35;;
52586;SDS011;38480;52.724;6.436;2022-07-05T12:46:01;2.05;;;0.63;;
52586;SDS011;38480;52.724;6.436;2022-07-05T12:48:35;2.78;;;0.80;;
52586;SDS011;38480;52.724;6.436;2022-07-05T12:51:02;2.97;;;0.50;;
52586;SDS011;38480;52.724;6.436;2022-07-05T12:53:29;5.15;;;0.70;;
52586;SDS011;38480;52.724;6.436;2022-07-05T12:56:14;5.93;;;0.80;;
52586;SDS011;38480;52.724;6.436;2022-07-05T12:59:03;3.42;;;1.25;;
52586;SDS011;38480;52.724;6.436;2022-07-05T13:01:33;4.63;;;0.93;;
52586;SDS011;38480;52.724;6.436;2022-07-05T13:04:05;1.55;;;0.70;;
52586;SDS011;38480;52.724;6.436;2022-07-05T13:06:40;2.45;;;0.80;;
52586;SDS011;38480;52.724;6.436;2022-07-05T13:09:07;4.28;;;0.98;;
52586;SDS011;38480;52.724;6.436;2022-07-05T13:11:33;2.05;;;0.70;;
52586;SDS011;38480;52.724;6.436;2022-07-05T13:13:59;1.85;;;0.90;;
52586;SDS011;38480;52.724;6.436;2022-07-05T13:16:26;2.97;;;1.05;;
52586;SDS011;38480;52.724;6.436;2022-07-05T13:18:52;2.42;;;0.70;;
52586;SDS011;38480;52.724;6.436;2022-07-05T13:21:18;2.75;;;0.82;;
52586;SDS011;38480;52.724;6.436;2022-07-05T13:23:44;3.17;;;0.95;;
52586;SDS011;38480;52.724;6.436;2022-07-05T13:26:10;4.10;;;0.90;;
52586;SDS011;38480;52.724;6.436;2022-07-05T13:28:36;1.58;;;0.63;;
52586;SDS011;38480;52.724;6.436;2022-07-05T13:31:02;4.53;;;0.80;;
52586;SDS011;38480;52.724;6.436;2022-07-05T13:33:28;4.03;;;1.00;;
52586;SDS011;38480;52.724;6.436;2022-07-05T13:35:54;2.55;;;0.60;;
52586;SDS011;38480;52.724;6.436;2022-07-05T13:38:20;2.28;;;0.90;;
52586;SDS011;38480;52.724;6.436;2022-07-05T13:40:46;1.85;;;1.15;;
52586;SDS011;38480;52.724;6.436;2022-07-05T13:43:12;2.92;;;1.05;;
52586;SDS011;38480;52.724;6.436;2022-07-05T13:45:38;2.58;;;0.70;;
52586;SDS011;38480;52.724;6.436;2022-07-05T13:48:04;2.40;;;0.70;;
52586;SDS011;38480;52.724;6.436;2022-07-05T13:50:30;2.63;;;0.70;;
52586;SDS011;38480;52.724;6.436;2022-07-05T13:52:56;1.80;;;0.50;;
52586;SDS011;38480;52.724;6.436;2022-07-05T13:55:22;2.70;;;0.60;;
52586;SDS011;38480;52.724;6.436;2022-07-05T13:57:48;3.10;;;1.13;;
52586;SDS011;38480;52.724;6.436;2022-07-05T14:00:15;2.35;;;0.68;;
52586;SDS011;38480;52.724;6.436;2022-07-05T14:02:42;2.53;;;0.80;;
52586;SDS011;38480;52.724;6.436;2022-07-05T14:05:08;2.20;;;0.80;;
52586;SDS011;38480;52.724;6.436;2022-07-05T14:07:35;2.17;;;0.65;;
52586;SDS011;38480;52.724;6.436;2022-07-05T14:10:01;1.75;;;0.73;;
52586;SDS011;38480;52.724;6.436;2022-07-05T14:12:27;3.47;;;0.77;;
52586;SDS011;38480;52.724;6.436;2022-07-05T14:14:53;2.45;;;0.65;;
52586;SDS011;38480;52.724;6.436;2022-07-05T14:17:19;2.13;;;0.57;;
52586;SDS011;38480;52.724;6.436;2022-07-05T14:19:45;3.25;;;0.77;;
52586;SDS011;38480;52.724;6.436;2022-07-05T14:22:11;2.58;;;0.80;;
52586;SDS011;38480;52.724;6.436;2022-07-05T14:24:37;3.03;;;0.77;;
52586;SDS011;38480;52.724;6.436;2022-07-05T14:27:03;1.80;;;0.70;;
52586;SDS011;38480;52.724;6.436;2022-07-05T14:29:33;1.08;;;0.40;;
52586;SDS011;38480;52.724;6.436;2022-07-05T14:31:59;1.88;;;0.55;;
52586;SDS011;38480;52.724;6.436;2022-07-05T14:34:25;1.42;;;0.80;;
52586;SDS011;38480;52.724;6.436;2022-07-05T14:36:53;3.47;;;0.90;;
52586;SDS011;38480;52.724;6.436;2022-07-05T14:39:19;2.40;;;0.57;;
52586;SDS011;38480;52.724;6.436;2022-07-05T14:41:46;3.65;;;0.70;;
52586;SDS011;38480;52.724;6.436;2022-07-05T14:44:12;1.63;;;0.60;;
52586;SDS011;38480;52.724;6.436;2022-07-05T14:46:38;3.05;;;0.75;;
52586;SDS011;38480;52.724;6.436;2022-07-05T14:49:04;2.90;;;1.20;;
52586;SDS011;38480;52.724;6.436;2022-07-05T14:51:30;6.78;;;1.42;;
52586;SDS011;38480;52.724;6.436;2022-07-05T14:53:56;1.40;;;0.60;;